Jan. 12th, 2016

dvv: (суров)
KIAD 122222Z 1222/1324 25015G25KT P6SM -SHSN BKN050 TEMPO 1223/1224 28022G40KT 4SM -SHSN
здравствуй жопа новыйгот

Profile

dvv: (Default)
dvv

December 2016

S M T W T F S
    123
45678910
111213 14151617
18192021222324
2526 27 28293031

Page Summary

Style Credit

Expand Cut Tags

No cut tags
Page generated Jul. 26th, 2017 08:26 am
Powered by Dreamwidth Studios